.
WxDataArchive / Data Records for 2011-08-10
2011-08-09 August 2011 2011-08-11

Data Records for Wednesday, 10 August 2011

Time	Temp	Chill	HIndex	Humid	Dewpt	 Wind 	HiWind	WindDir	Rain 	Barom 
-----	----	-----	------	-----	-----	------	------	-------	-----	----- 
00:00	67.1	67.1	67.1	76	59.3	0	0	---	0.00	29.685 
00:05	66.8	66.8	66.8	77	59.3	0	0	---	0.00	29.685 
00:10	66.8	66.8	66.8	77	59.3	0	0	---	0.00	29.685 
00:15	66.6	66.6	66.6	77	59.2	0	0	---	0.00	29.687 
00:20	66.6	66.6	66.6	78	59.5	0	0	---	0.00	29.687 
00:25	66.6	66.6	66.6	78	59.5	0	1	315	0.00	29.687 
00:30	66.8	66.8	66.8	78	59.7	0	0	---	0.00	29.691 
00:35	66.8	66.8	66.8	78	59.7	0	0	---	0.00	29.691 
00:40	66.9	66.9	66.9	78	59.8	0	0	---	0.00	29.691 
00:45	66.9	66.9	66.9	78	59.8	0	0	---	0.00	29.689 
00:50	67.1	67.1	67.1	78	60.0	0	0	---	0.00	29.689 
00:55	67.1	67.1	67.1	78	60.0	0	0	---	0.00	29.689 
01:00	67.1	67.1	67.1	77	59.6	0	1	315	0.00	29.695 
01:05	67.1	67.1	67.1	77	59.6	0	0	---	0.00	29.695 
01:10	67.1	67.1	67.1	77	59.6	0	0	---	0.00	29.695 
01:15	67.1	67.1	67.1	77	59.6	0	0	---	0.00	29.690 
01:20	67.1	67.1	67.1	77	59.6	0	1	315	0.00	29.690 
01:25	67.1	67.1	67.1	77	59.6	0	0	---	0.00	29.690 
01:30	67.1	67.1	67.1	77	59.6	0	0	---	0.00	29.683 
01:35	67.1	67.1	67.1	77	59.6	0	0	---	0.00	29.683 
01:40	67.1	67.1	67.1	76	59.3	0	0	---	0.00	29.683 
01:45	67.1	67.1	67.1	77	59.6	0	1	315	0.00	29.683 
01:50	67.1	67.1	67.1	76	59.3	0	1	315	0.00	29.683 
01:55	67.1	67.1	67.1	76	59.3	0	2	315	0.00	29.683 
02:00	67.3	67.3	67.3	75	59.1	0	1	315	0.00	29.683 
02:05	67.6	67.6	67.6	74	59.0	0	1	315	0.00	29.683 
02:10	67.8	67.8	67.8	74	59.2	0	1	315	0.00	29.683 
02:15	67.8	67.8	67.8	74	59.2	0	1	315	0.00	29.681 
02:20	67.8	67.8	67.8	74	59.2	0	1	315	0.00	29.681 
02:25	67.8	67.8	67.8	74	59.2	0	1	315	0.00	29.681 
02:30	67.8	67.8	67.8	74	59.2	0	1	315	0.00	29.682 
02:35	67.6	67.6	67.6	74	59.0	0	1	315	0.00	29.682 
02:40	67.6	67.6	67.6	74	59.0	0	1	315	0.00	29.682 
02:45	67.6	67.6	67.6	74	59.0	0	1	315	0.00	29.682 
02:50	67.8	67.8	67.8	74	59.2	0	1	315	0.00	29.682 
02:55	67.8	67.8	67.8	74	59.2	0	1	315	0.00	29.682 
03:00	67.8	67.8	67.8	74	59.2	0	1	315	0.00	29.683 
03:05	67.9	67.9	67.9	74	59.3	0	2	315	0.00	29.683 
03:10	67.9	67.9	67.9	74	59.3	0	3	270	0.00	29.683 
03:15	68.1	68.1	68.1	74	59.5	1	4	270	0.00	29.684 
03:20	68.3	68.3	68.3	73	59.3	1	4	270	0.00	29.684 
03:25	68.4	68.4	68.4	73	59.4	1	4	270	0.00	29.684 
03:30	68.4	68.4	68.4	73	59.4	2	5	292	0.00	29.688 
03:35	68.6	68.6	68.6	73	59.6	1	3	292	0.00	29.688 
03:40	68.4	68.4	68.4	73	59.4	2	4	270	0.00	29.688 
03:45	68.3	68.3	68.3	74	59.7	1	3	270	0.00	29.693 
03:50	68.1	68.1	68.1	74	59.5	1	3	270	0.00	29.693 
03:55	67.8	67.8	67.8	75	59.6	1	4	270	0.00	29.693 
04:00	67.6	67.6	67.6	75	59.4	0	2	270	0.00	29.689 
04:05	67.3	67.3	67.3	76	59.5	1	4	270	0.00	29.689 
04:10	67.1	67.1	67.1	77	59.6	0	1	270	0.00	29.689 
04:15	66.9	66.9	66.9	77	59.4	0	1	270	0.00	29.685 
04:20	66.8	66.8	66.8	78	59.7	0	1	270	0.00	29.685 
04:25	66.6	66.6	66.6	78	59.5	0	1	270	0.00	29.685 
04:30	66.3	66.3	66.3	79	59.6	0	1	270	0.00	29.688 
04:35	66.1	66.1	66.1	79	59.4	0	1	270	0.00	29.688 
04:40	66.0	66.0	66.0	80	59.6	0	1	270	0.00	29.688 
04:45	65.8	65.8	65.8	80	59.5	0	2	270	0.00	29.691 
04:50	65.6	65.6	65.6	81	59.6	0	1	270	0.00	29.691 
04:55	65.5	65.5	65.5	81	59.5	0	1	270	0.00	29.691 
05:00	65.5	65.5	65.5	81	59.5	0	0	---	0.00	29.691 
05:05	65.3	65.3	65.3	82	59.7	0	1	270	0.00	29.691 
05:10	65.2	65.2	65.2	82	59.6	0	1	270	0.00	29.691 
05:15	65.0	65.0	65.0	83	59.7	0	1	270	0.00	29.699 
05:20	65.0	65.0	65.0	83	59.7	0	1	270	0.00	29.699 
05:25	64.8	64.8	64.8	83	59.5	0	1	270	0.00	29.699 
05:30	64.8	64.8	64.8	84	59.8	0	2	270	0.00	29.704 
05:35	64.8	64.8	64.8	84	59.8	1	3	270	0.00	29.704 
05:40	64.8	64.8	64.8	84	59.8	0	2	270	0.00	29.704 
05:45	64.7	64.7	64.7	84	59.7	0	2	270	0.00	29.703 
05:50	64.7	64.7	64.7	84	59.7	1	3	270	0.00	29.703 
05:55	64.7	64.7	64.7	84	59.7	0	2	270	0.00	29.703 
06:00	64.7	64.7	64.7	84	59.7	1	3	270	0.00	29.705 
06:05	64.5	64.5	64.5	84	59.6	0	2	270	0.00	29.705 
06:10	64.5	64.5	64.5	84	59.6	1	2	270	0.00	29.705 
06:15	64.5	64.5	64.5	84	59.6	1	3	270	0.00	29.709 
06:20	64.5	64.5	64.5	84	59.6	1	3	292	0.00	29.709 
06:25	64.5	64.5	64.5	84	59.6	0	1	292	0.00	29.709 
06:30	64.5	64.5	64.5	85	59.9	0	1	292	0.00	29.713 
06:35	64.3	64.3	64.3	85	59.7	0	1	292	0.00	29.713 
06:40	64.3	64.3	64.3	85	59.7	0	2	292	0.00	29.713 
06:45	64.2	64.2	64.2	85	59.6	0	1	292	0.00	29.712 
06:50	64.2	64.2	64.2	85	59.6	0	2	292	0.00	29.712 
06:55	64.2	64.2	64.2	85	59.6	0	1	292	0.00	29.712 
07:00	64.0	64.0	64.0	85	59.4	0	1	292	0.00	29.715 
07:05	64.0	64.0	64.0	85	59.4	0	1	292	0.00	29.715 
07:10	63.9	63.9	63.9	86	59.6	0	1	292	0.00	29.715 
07:15	63.9	63.9	63.9	86	59.6	0	1	292	0.00	29.708 
07:20	63.9	63.9	63.9	86	59.6	0	1	292	0.00	29.708 
07:25	63.9	63.9	63.9	86	59.6	1	2	292	0.00	29.708 
07:30	64.0	64.0	64.0	86	59.7	1	3	292	0.00	29.719 
07:35	64.0	64.0	64.0	86	59.7	0	2	292	0.00	29.719 
07:40	64.2	64.2	64.2	86	59.9	0	3	292	0.00	29.719 
07:45	64.3	64.3	64.3	86	60.0	1	3	292	0.00	29.725 
07:50	64.7	64.7	64.7	85	60.1	0	2	292	0.00	29.725 
07:55	64.8	64.8	64.8	85	60.2	0	2	292	0.00	29.725 
08:00	65.2	65.2	65.2	84	60.2	0	3	292	0.00	29.723 
08:05	65.6	65.6	65.6	84	60.6	1	3	292	0.00	29.723 
08:10	66.0	66.0	66.0	82	60.3	1	2	292	0.00	29.723 
08:15	66.4	66.4	66.4	81	60.4	1	4	292	0.00	29.734 
08:20	66.8	66.8	66.8	81	60.8	1	2	292	0.00	29.734 
08:25	67.3	67.3	67.3	80	60.9	1	3	292	0.00	29.734 
08:30	67.6	67.6	67.6	78	60.5	2	4	270	0.00	29.734 
08:35	67.9	67.9	67.9	77	60.4	1	3	270	0.00	29.734 
08:40	68.3	68.3	68.3	77	60.8	1	3	270	0.00	29.734 
08:45	68.6	68.6	68.6	76	60.7	2	4	292	0.00	29.748 
08:50	68.8	68.8	68.8	75	60.5	2	3	315	0.00	29.748 
08:55	68.8	68.8	68.8	75	60.5	1	3	315	0.00	29.748 
09:00	69.1	69.1	69.1	74	60.5	2	4	315	0.00	29.748 
09:05	69.4	69.4	69.4	73	60.4	2	5	270	0.00	29.748 
09:10	69.9	69.9	69.9	73	60.8	2	5	270	0.00	29.748 
09:15	70.1	70.1	70.1	72	60.6	2	5	338	0.00	29.762 
09:20	70.3	70.3	70.3	72	60.8	2	5	270	0.00	29.762 
09:25	70.6	70.6	70.6	71	60.7	2	5	270	0.00	29.762 
09:30	70.8	70.8	70.8	71	60.9	2	4	292	0.00	29.768 
09:35	70.9	70.9	70.9	70	60.6	2	3	292	0.00	29.768 
09:40	71.1	71.1	71.1	69	60.4	3	6	270	0.00	29.768 
09:45	71.1	71.1	71.1	69	60.4	2	4	270	0.00	29.777 
09:50	71.5	71.5	71.5	69	60.8	2	5	270	0.00	29.777 
09:55	71.8	71.8	71.8	68	60.7	1	3	292	0.00	29.777 
10:00	71.6	71.6	71.6	68	60.5	2	6	270	0.00	29.778 
10:05	71.8	71.8	71.8	68	60.7	2	6	338	0.00	29.778 
10:10	72.0	72.0	72.0	67	60.4	2	4	315	0.00	29.778 
10:15	72.0	72.0	72.0	65	59.6	3	6	315	0.00	29.777 
10:20	72.1	72.1	72.1	65	59.7	2	5	270	0.00	29.777 
10:25	72.0	72.0	72.0	65	59.6	3	7	292	0.00	29.777 
10:30	72.1	72.1	72.1	64	59.2	3	5	292	0.00	29.770 
10:35	72.1	72.1	72.1	65	59.7	3	6	315	0.00	29.770 
10:40	72.7	72.7	72.7	63	59.4	2	4	292	0.00	29.770 
10:45	72.7	72.7	72.7	62	58.9	3	6	292	0.00	29.773 
10:50	72.7	72.7	72.7	62	58.9	4	7	315	0.00	29.773 
10:55	73.2	73.2	73.2	59	58.0	3	6	270	0.00	29.773 
11:00	73.0	73.0	73.0	58	57.3	4	6	270	0.00	29.770 
11:05	72.7	72.7	72.7	60	58.0	2	7	315	0.00	29.770 
11:10	73.2	73.2	73.2	60	58.5	3	5	270	0.00	29.770 
11:15	73.7	73.7	73.7	57	57.5	3	9	292	0.00	29.774 
11:20	73.3	73.3	73.3	54	55.6	4	7	292	0.00	29.774 
11:25	73.5	73.5	73.5	55	56.3	3	7	270	0.00	29.774 
11:30	74.0	74.0	74.0	56	57.3	3	7	270	0.00	29.775 
11:35	74.6	74.6	74.6	55	57.3	3	6	292	0.00	29.775 
11:40	74.6	74.6	74.6	53	56.3	3	7	292	0.00	29.775 
11:45	74.7	74.7	74.7	51	55.4	3	6	292	0.00	29.775 
11:50	75.1	75.1	77.7	49	54.6	4	10	270	0.00	29.775 
11:55	75.4	75.4	77.8	49	54.9	3	9	292	0.00	29.775 
12:00	75.3	75.3	77.7	48	54.2	3	6	315	0.00	29.772 
12:05	75.3	75.3	77.7	50	55.4	3	7	292	0.00	29.772 
12:10	75.8	75.8	78.0	49	55.3	3	6	315	0.00	29.772 
12:15	75.6	75.6	77.9	49	55.1	4	11	315	0.00	29.772 
12:20	75.8	75.8	78.0	49	55.3	3	7	292	0.00	29.772 
12:25	75.3	75.3	77.7	49	54.8	3	6	315	0.00	29.772 
12:30	75.3	75.3	77.7	49	54.8	4	7	270	0.00	29.781 
12:35	75.6	75.6	77.9	50	55.6	4	7	270	0.00	29.781 
12:40	76.0	76.0	78.1	49	55.4	3	6	292	0.00	29.781 
12:45	76.7	76.7	78.4	47	54.9	2	6	315	0.00	29.778 
12:50	76.7	76.7	78.3	46	54.3	4	9	270	0.00	29.778 
12:55	76.5	76.5	78.2	44	52.9	3	7	270	0.00	29.778 
13:00	76.7	76.7	78.3	44	53.1	4	12	270	0.00	29.780 
13:05	76.5	76.5	78.2	45	53.6	3	12	270	0.00	29.780 
13:10	76.5	76.5	78.2	45	53.6	3	10	270	0.00	29.780 
13:15	76.1	76.1	78.0	46	53.8	4	7	270	0.00	29.789 
13:20	75.4	75.4	77.8	49	54.9	4	8	270	0.00	29.789 
13:25	75.1	75.1	77.7	48	54.1	3	7	270	0.00	29.789 
13:30	74.6	74.6	74.6	52	55.8	4	9	270	0.00	29.797 
13:35	75.1	75.1	77.7	51	55.7	4	6	270	0.00	29.797 
13:40	76.1	76.1	78.1	49	55.5	3	8	270	0.00	29.797 
13:45	76.8	76.8	78.3	45	53.8	3	6	270	0.00	29.783 
13:50	77.6	77.6	78.7	44	53.9	4	7	270	0.00	29.783 
13:55	76.7	76.7	78.3	46	54.3	3	5	315	0.00	29.783 
14:00	75.6	75.6	77.9	47	53.9	4	10	270	0.00	29.784 
14:05	74.9	74.9	74.9	50	55.0	3	7	270	0.00	29.784 
14:10	75.4	75.4	77.8	50	55.4	3	6	270	0.00	29.784 
14:15	76.3	76.3	78.2	50	56.3	3	6	270	0.00	29.781 
14:20	77.0	77.0	78.4	45	54.0	3	6	292	0.00	29.781 
14:25	76.0	76.0	77.9	43	51.9	4	9	270	0.00	29.781 
14:30	76.1	76.1	78.0	44	52.6	4	7	315	0.00	29.785 
14:35	76.5	76.5	78.3	47	54.7	4	10	270	0.00	29.785 
14:40	76.8	76.8	78.2	41	51.3	4	11	292	0.00	29.785 
14:45	76.7	76.7	78.3	44	53.1	4	11	270	0.00	29.792 
14:50	77.0	77.0	78.3	42	52.1	4	7	270	0.00	29.792 
14:55	77.2	77.2	78.3	39	50.3	3	8	292	0.00	29.792 
15:00	77.2	77.2	78.3	39	50.3	4	8	315	0.00	29.796 
15:05	76.7	76.7	78.0	37	48.4	4	9	315	0.00	29.796 
15:10	76.5	76.5	77.9	37	48.3	4	8	270	0.00	29.796 
15:15	76.7	76.7	78.1	39	49.9	3	9	315	0.00	29.797 
15:20	76.5	76.5	77.9	38	49.0	4	8	270	0.00	29.797 
15:25	76.8	76.8	77.9	36	47.8	4	9	270	0.00	29.797 
15:30	76.8	76.8	78.0	38	49.2	3	9	270	0.00	29.796 
15:35	76.8	76.8	78.0	38	49.2	3	7	270	0.00	29.796 
15:40	76.7	76.7	78.0	38	49.2	2	5	315	0.00	29.796 
15:45	77.0	77.0	78.1	38	49.4	3	11	315	0.00	29.799 
15:50	76.7	76.7	78.0	38	49.2	5	10	270	0.00	29.799 
15:55	76.8	76.8	78.1	39	49.9	4	8	270	0.00	29.799 
16:00	76.5	76.5	78.0	39	49.7	3	5	292	0.00	29.799 
16:05	76.5	76.5	78.0	39	49.7	3	11	315	0.00	29.799 
16:10	76.5	76.5	78.0	39	49.7	3	11	270	0.00	29.799 
16:15	76.5	76.5	77.9	38	49.0	3	11	315	0.00	29.801 
16:20	76.3	76.3	77.8	38	48.8	4	9	270	0.00	29.801 
16:25	76.3	76.3	77.8	38	48.8	3	6	270	0.00	29.801 
16:30	76.0	76.0	77.7	38	48.5	5	11	270	0.00	29.800 
16:35	76.0	76.0	77.8	39	49.2	4	8	270	0.00	29.800 
16:40	76.5	76.5	78.0	39	49.7	4	7	270	0.00	29.800 
16:45	76.3	76.3	77.9	39	49.5	3	8	270	0.00	29.800 
16:50	76.1	76.1	77.8	38	48.6	4	10	270	0.00	29.800 
16:55	76.1	76.1	77.8	38	48.6	2	6	315	0.00	29.800 
17:00	76.1	76.1	77.7	36	47.2	3	7	270	0.00	29.800 
17:05	76.0	76.0	77.7	38	48.5	3	6	270	0.00	29.800 
17:10	75.8	75.8	77.7	38	48.4	2	6	270	0.00	29.800 
17:15	76.0	76.0	77.7	38	48.5	2	5	292	0.00	29.801 
17:20	76.1	76.1	77.8	38	48.6	1	5	292	0.00	29.801 
17:25	76.0	76.0	77.7	37	47.8	2	5	270	0.00	29.801 
17:30	75.6	75.6	77.6	37	47.5	2	5	315	0.00	29.802 
17:35	75.3	75.3	77.4	36	46.5	2	5	315	0.00	29.802 
17:40	75.3	75.3	77.5	37	47.2	2	5	270	0.00	29.802 
17:45	75.3	75.3	77.5	38	47.9	3	6	292	0.00	29.814 
17:50	75.3	75.3	77.5	37	47.2	2	6	292	0.00	29.814 
17:55	75.3	75.3	77.5	37	47.2	3	10	315	0.00	29.814 
18:00	75.3	75.3	77.4	36	46.5	2	6	270	0.00	29.815 
18:05	75.3	75.3	77.4	35	45.7	3	6	292	0.00	29.815 
18:10	74.9	74.9	74.9	36	46.1	3	6	292	0.00	29.815 
18:15	74.6	74.6	74.6	37	46.6	3	6	270	0.00	29.818 
18:20	74.6	74.6	74.6	36	45.9	2	6	292	0.00	29.818 
18:25	74.6	74.6	74.6	36	45.9	2	5	292	0.00	29.818 
18:30	74.4	74.4	74.4	36	45.7	2	7	292	0.00	29.819 
18:35	74.2	74.2	74.2	39	47.6	2	6	315	0.00	29.819 
18:40	74.0	74.0	74.0	38	46.8	2	4	292	0.00	29.819 
18:45	74.2	74.2	74.2	37	46.2	2	5	315	0.00	29.821 
18:50	74.0	74.0	74.0	38	46.8	1	5	315	0.00	29.821 
18:55	73.7	73.7	73.7	38	46.5	3	7	292	0.00	29.821 
19:00	73.5	73.5	73.5	39	47.0	1	4	292	0.00	29.823 
19:05	73.3	73.3	73.3	41	48.2	2	4	292	0.00	29.823 
19:10	73.2	73.2	73.2	41	48.1	1	5	292	0.00	29.823 
19:15	73.0	73.0	73.0	40	47.2	1	6	315	0.00	29.823 
19:20	72.8	72.8	72.8	41	47.7	2	5	292	0.00	29.823 
19:25	72.5	72.5	72.5	41	47.4	2	4	292	0.00	29.823 
19:30	72.3	72.3	72.3	42	47.9	0	3	315	0.00	29.826 
19:35	72.1	72.1	72.1	43	48.4	1	5	315	0.00	29.826 
19:40	72.1	72.1	72.1	43	48.4	1	4	315	0.00	29.826 
19:45	71.8	71.8	71.8	41	46.8	2	5	292	0.00	29.827 
19:50	71.6	71.6	71.6	42	47.3	2	6	292	0.00	29.827 
19:55	71.5	71.5	71.5	43	47.8	1	5	270	0.00	29.827 
20:00	71.1	71.1	71.1	43	47.5	1	4	292	0.00	29.833 
20:05	70.9	70.9	70.9	43	47.3	1	3	315	0.00	29.833 
20:10	70.8	70.8	70.8	43	47.2	1	3	315	0.00	29.833 
20:15	70.4	70.4	70.4	44	47.4	1	3	315	0.00	29.831 
20:20	70.3	70.3	70.3	44	47.3	1	3	315	0.00	29.831 
20:25	69.9	69.9	69.9	45	47.6	1	3	315	0.00	29.831 
20:30	69.6	69.6	69.6	46	47.9	1	3	315	0.00	29.835 
20:35	69.3	69.3	69.3	46	47.6	0	2	315	0.00	29.835 
20:40	68.9	68.9	68.9	45	46.7	1	4	292	0.00	29.835 
20:45	68.8	68.8	68.8	46	47.2	1	2	270	0.00	29.841 
20:50	68.4	68.4	68.4	47	47.4	0	1	270	0.00	29.841 
20:55	68.1	68.1	68.1	48	47.7	0	1	270	0.00	29.841 
21:00	67.8	67.8	67.8	48	47.4	0	1	270	0.00	29.850 
21:05	67.4	67.4	67.4	48	47.0	0	1	270	0.00	29.850 
21:10	67.1	67.1	67.1	49	47.3	0	1	270	0.00	29.850 
21:15	66.9	66.9	66.9	48	46.6	0	2	270	0.00	29.852 
21:20	66.6	66.6	66.6	49	46.8	0	1	270	0.00	29.852 
21:25	66.4	66.4	66.4	50	47.2	0	2	270	0.00	29.852 
21:30	66.1	66.1	66.1	51	47.4	0	1	270	0.00	29.858 
21:35	65.8	65.8	65.8	52	47.7	0	1	270	0.00	29.858 
21:40	65.3	65.3	65.3	52	47.2	0	1	270	0.00	29.858 
21:45	65.2	65.2	65.2	53	47.6	0	1	270	0.00	29.864 
21:50	64.8	64.8	64.8	54	47.8	0	1	270	0.00	29.864 
21:55	64.5	64.5	64.5	54	47.5	0	0	---	0.00	29.864 
22:00	64.3	64.3	64.3	55	47.8	0	0	---	0.00	29.869 
22:05	64.0	64.0	64.0	55	47.5	0	0	---	0.00	29.869 
22:10	63.9	63.9	63.9	56	47.9	0	0	---	0.00	29.869 
22:15	63.7	63.7	63.7	57	48.2	0	0	---	0.00	29.879 
22:20	63.5	63.5	63.5	57	48.0	0	0	---	0.00	29.879 
22:25	63.4	63.4	63.4	58	48.4	0	0	---	0.00	29.879 
22:30	63.1	63.1	63.1	59	48.5	0	0	---	0.00	29.884 
22:35	62.9	62.9	62.9	60	48.8	0	0	---	0.00	29.884 
22:40	62.4	62.4	62.4	60	48.3	0	0	---	0.00	29.884 
22:45	62.1	62.1	62.1	60	48.0	0	0	---	0.00	29.892 
22:50	61.8	61.8	61.8	62	48.6	0	0	---	0.00	29.892 
22:55	61.5	61.5	61.5	63	48.8	0	0	---	0.00	29.892 
23:00	61.2	61.2	61.2	64	48.9	0	0	---	0.00	29.898 
23:05	60.9	60.9	60.9	65	49.1	0	0	---	0.00	29.898 
23:10	60.4	60.4	60.4	65	48.6	0	0	---	0.00	29.898 
23:15	60.1	60.1	60.1	66	48.7	0	0	---	0.00	29.899 
23:20	59.8	59.8	59.8	67	48.8	0	0	---	0.00	29.899 
23:25	59.5	59.5	59.5	67	48.5	0	0	---	0.00	29.899 
23:30	59.3	59.3	59.3	68	48.7	0	0	---	0.00	29.899 
23:35	59.0	59.0	59.0	69	48.8	0	0	---	0.00	29.899 
23:40	58.7	58.7	58.7	69	48.6	0	0	---	0.00	29.899 
23:45	58.6	58.6	58.6	70	48.8	0	0	---	0.00	29.899 
23:50	58.3	58.3	58.3	72	49.3	0	0	---	0.00	29.899 
23:55	57.8	57.8	57.8	72	48.8	0	0	---	0.00	29.899 

CoCoRaHS
IN-AL-39
A2 Web Hosting
Creative Commons License
GoDaddy
search engine by freefind advanced

loaded 2018-11-17 23:05:18 • last modified 2010-11-18 10:43:29
Privacy PolicyDisclaimer
• wx.awcolley.com is powered by PmWiki v.2002016 •
• all content (unless otherwise noted) © 2018 A W Colley